Time;durP1;ratioP1;P1;durP2;ratioP2;P2;SDS_P1;SDS_P2;PMS_P1;PMS_P2;Temp;Humidity;BMP_temperature;BMP_pressure;BME280_temperature;BME280_humidity;BME280_pressure;Samples;Min_cycle;Max_cycle;Signal;HPM_P1;HPM_P2
2022/07/08 00:01:33;;;;;;;;;;;26.00;40.10;;;;;;1567852;75;731;-64
2022/07/08 00:03:35;;;;;;;;;;;26.00;40.10;;;;;;1565993;75;775;-63
2022/07/08 00:05:38;;;;;;;;;;;26.00;40.10;;;;;;1568140;74;1213;-63
2022/07/08 00:07:40;;;;;;;;;;;26.00;40.10;;;;;;1566172;75;730;-64
2022/07/08 00:09:41;;;;;;;;;;;26.00;40.10;;;;;;1570841;74;733;-65
2022/07/08 00:11:43;;;;;;;;;;;26.00;40.00;;;;;;1554210;74;717;-62
2022/07/08 00:13:45;;;;;;;;;;;26.00;40.20;;;;;;1568604;75;752;-65
2022/07/08 00:15:47;;;;;;;;;;;26.00;40.00;;;;;;1575486;74;1950;-64
2022/07/08 00:17:49;;;;;;;;;;;26.00;40.00;;;;;;1574720;74;728;-65
2022/07/08 00:19:51;;;;;;;;;;;26.00;40.00;;;;;;1569592;74;716;-63
2022/07/08 00:21:53;;;;;;;;;;;25.90;39.50;;;;;;1573248;74;715;-61
2022/07/08 00:23:55;;;;;;;;;;;25.90;39.50;;;;;;1568020;75;568;-62
2022/07/08 00:25:56;;;;;;;;;;;26.00;40.00;;;;;;1564106;75;1465;-66
2022/07/08 00:27:58;;;;;;;;;;;25.90;39.40;;;;;;1572645;74;692;-63
2022/07/08 00:30:00;;;;;;;;;;;26.00;40.00;;;;;;1568471;75;611;-64
2022/07/08 00:32:02;;;;;;;;;;;25.90;39.40;;;;;;1570051;75;710;-65
2022/07/08 00:34:04;;;;;;;;;;;26.00;40.00;;;;;;1583395;74;729;-62
2022/07/08 00:36:06;;;;;;;;;;;26.00;39.90;;;;;;1557270;75;1931;-62
2022/07/08 00:38:08;;;;;;;;;;;25.90;39.30;;;;;;1575605;75;727;-65
2022/07/08 00:40:11;;;;;;;;;;;25.90;39.30;;;;;;1577842;74;762;-61
2022/07/08 00:42:13;;;;;;;;;;;26.00;39.90;;;;;;1570970;75;705;-65
2022/07/08 00:44:16;;;;;;;;;;;25.90;39.20;;;;;;1571221;74;635;-64
2022/07/08 00:46:17;;;;;;;;;;;25.90;39.20;;;;;;1564225;75;1164;-65
2022/07/08 00:48:19;;;;;;;;;;;26.00;39.80;;;;;;1567795;74;738;-62
2022/07/08 00:50:21;;;;;;;;;;;26.00;39.80;;;;;;1576596;74;783;-65
2022/07/08 00:52:23;;;;;;;;;;;25.90;39.20;;;;;;1573356;75;707;-63
2022/07/08 00:54:25;;;;;;;;;;;25.90;39.20;;;;;;1573804;75;699;-62
2022/07/08 00:56:27;;;;;;;;;;;25.90;39.30;;;;;;1574559;71;3023;-64
2022/07/08 00:58:29;;;;;;;;;;;25.90;39.20;;;;;;1548107;75;672;-64
2022/07/08 01:00:31;;;;;;;;;;;25.90;39.30;;;;;;1533719;75;790;-64
2022/07/08 01:02:33;;;;;;;;;;;25.90;39.30;;;;;;1553916;75;791;-65
2022/07/08 01:04:35;;;;;;;;;;;25.90;39.30;;;;;;1555754;75;836;-64
2022/07/08 01:06:37;;;;;;;;;;;25.90;39.30;;;;;;1528804;75;1161;-64
2022/07/08 01:08:39;;;;;;;;;;;25.90;39.30;;;;;;1569047;75;743;-64
2022/07/08 01:10:41;;;;;;;;;;;26.00;39.90;;;;;;1556316;75;806;-64
2022/07/08 01:12:43;;;;;;;;;;;25.90;39.30;;;;;;1539989;75;879;-63
2022/07/08 01:14:45;;;;;;;;;;;26.00;39.80;;;;;;1543459;75;740;-65
2022/07/08 01:16:47;;;;;;;;;;;25.90;39.20;;;;;;1555669;75;1918;-64
2022/07/08 01:18:49;;;;;;;;;;;25.90;39.20;;;;;;1544751;75;768;-66
2022/07/08 01:20:50;;;;;;;;;;;25.90;39.40;;;;;;1549741;75;652;-65
2022/07/08 01:22:52;;;;;;;;;;;25.90;39.30;;;;;;1534184;75;1484;-65
2022/07/08 01:24:54;;;;;;;;;;;25.90;39.20;;;;;;1541972;75;784;-65
2022/07/08 01:26:56;;;;;;;;;;;25.90;39.20;;;;;;1533747;75;1141;-64
2022/07/08 01:28:58;;;;;;;;;;;25.90;39.30;;;;;;1542363;75;774;-66
2022/07/08 01:31:00;;;;;;;;;;;25.90;39.20;;;;;;1535460;75;823;-65
2022/07/08 01:33:02;;;;;;;;;;;25.90;39.20;;;;;;1517909;76;727;-65
2022/07/08 01:35:05;;;;;;;;;;;26.00;39.80;;;;;;1529049;75;736;-64
2022/07/08 01:37:06;;;;;;;;;;;25.90;39.20;;;;;;1542184;75;1932;-65
2022/07/08 01:39:08;;;;;;;;;;;25.90;39.10;;;;;;1558391;75;717;-64
2022/07/08 01:41:10;;;;;;;;;;;25.90;39.10;;;;;;1556745;75;606;-64
2022/07/08 01:43:12;;;;;;;;;;;25.90;39.10;;;;;;1543075;75;785;-65
2022/07/08 01:45:14;;;;;;;;;;;25.90;39.10;;;;;;1545281;75;804;-64
2022/07/08 01:47:16;;;;;;;;;;;25.90;39.10;;;;;;1545763;75;1147;-64
2022/07/08 01:49:19;;;;;;;;;;;25.90;39.00;;;;;;1550592;75;828;-64
2022/07/08 01:51:21;;;;;;;;;;;25.90;39.00;;;;;;1559191;75;797;-64
2022/07/08 01:53:23;;;;;;;;;;;25.90;39.10;;;;;;1557355;75;733;-64
2022/07/08 01:55:25;;;;;;;;;;;25.90;39.00;;;;;;1551472;75;797;-66
2022/07/08 01:57:27;;;;;;;;;;;25.90;39.10;;;;;;1557093;74;1954;-64
2022/07/08 01:59:29;;;;;;;;;;;25.90;39.00;;;;;;1545718;75;647;-64
2022/07/08 02:01:31;;;;;;;;;;;25.90;39.00;;;;;;1563717;75;719;-64
2022/07/08 02:03:32;;;;;;;;;;;25.90;39.10;;;;;;1556827;75;775;-65
2022/07/08 02:05:34;;;;;;;;;;;25.80;39.00;;;;;;1546676;75;710;-64
2022/07/08 02:07:36;;;;;;;;;;;25.90;39.00;;;;;;1539075;75;1174;-64
2022/07/08 02:09:38;;;;;;;;;;;25.90;39.10;;;;;;1555041;75;761;-64
2022/07/08 02:14:00;;;;;;;;;;;25.80;39.10;;;;;;1542573;75;1635;-64
2022/07/08 02:16:02;;;;;;;;;;;25.80;39.20;;;;;;1544396;75;1951;-64
2022/07/08 02:18:04;;;;;;;;;;;25.80;39.10;;;;;;1540460;75;1549;-64
2022/07/08 02:20:07;;;;;;;;;;;25.90;39.10;;;;;;1552130;75;838;-64
2022/07/08 02:22:09;;;;;;;;;;;25.80;39.20;;;;;;1544621;75;751;-66
2022/07/08 02:24:11;;;;;;;;;;;25.90;39.20;;;;;;1551932;75;742;-66
2022/07/08 02:26:13;;;;;;;;;;;25.80;39.20;;;;;;1552504;75;1143;-66
2022/07/08 02:28:15;;;;;;;;;;;25.90;39.20;;;;;;1552109;75;740;-66
2022/07/08 02:30:17;;;;;;;;;;;25.80;39.20;;;;;;1529933;75;953;-66
2022/07/08 02:32:19;;;;;;;;;;;25.90;39.20;;;;;;1544203;75;855;-66
2022/07/08 02:34:20;;;;;;;;;;;25.90;39.20;;;;;;1558828;75;741;-66
2022/07/08 02:36:22;;;;;;;;;;;25.90;39.20;;;;;;1533255;75;1953;-67
2022/07/08 02:38:25;;;;;;;;;;;25.80;39.30;;;;;;1550833;75;720;-66
2022/07/08 02:40:27;;;;;;;;;;;25.90;39.20;;;;;;1548486;75;718;-66
2022/07/08 02:42:29;;;;;;;;;;;25.90;39.30;;;;;;1545781;75;797;-67
2022/07/08 02:44:31;;;;;;;;;;;25.90;39.20;;;;;;1562053;75;730;-66
2022/07/08 02:46:33;;;;;;;;;;;25.80;39.20;;;;;;1539609;75;1147;-66
2022/07/08 02:48:35;;;;;;;;;;;25.90;39.20;;;;;;1546030;75;730;-66
2022/07/08 02:50:37;;;;;;;;;;;25.90;39.10;;;;;;1553141;75;802;-66
2022/07/08 02:52:39;;;;;;;;;;;25.90;39.00;;;;;;1542212;75;799;-69
2022/07/08 02:54:41;;;;;;;;;;;25.90;39.00;;;;;;1544926;75;747;-65
2022/07/08 02:56:43;;;;;;;;;;;25.90;38.80;;;;;;1550531;75;1949;-64
2022/07/08 02:58:45;;;;;;;;;;;25.90;38.90;;;;;;1543799;75;1001;-66
2022/07/08 03:00:46;;;;;;;;;;;25.90;39.00;;;;;;1557483;75;734;-66
2022/07/08 03:02:48;;;;;;;;;;;25.90;39.00;;;;;;1541776;75;722;-64
2022/07/08 03:04:53;;;;;;;;;;;25.90;39.00;;;;;;1535363;75;770;-65
2022/07/08 03:06:54;;;;;;;;;;;25.90;39.00;;;;;;1549372;75;1192;-65
2022/07/08 03:08:56;;;;;;;;;;;25.90;39.10;;;;;;1558568;75;747;-65
2022/07/08 03:10:57;;;;;;;;;;;25.90;39.10;;;;;;1542289;75;687;-64
2022/07/08 03:12:59;;;;;;;;;;;25.90;39.20;;;;;;1549755;75;777;-65
2022/07/08 03:15:01;;;;;;;;;;;25.90;39.20;;;;;;1534212;75;1569;-65
2022/07/08 03:17:03;;;;;;;;;;;25.90;39.20;;;;;;1548942;75;1951;-64
2022/07/08 03:19:05;;;;;;;;;;;25.90;39.20;;;;;;1535014;75;790;-65
2022/07/08 03:21:11;;;;;;;;;;;25.90;39.20;;;;;;1550485;75;783;-65
2022/07/08 03:23:10;;;;;;;;;;;25.90;39.20;;;;;;1531317;75;1630;-64
2022/07/08 03:25:12;;;;;;;;;;;25.90;39.20;;;;;;1533567;75;724;-64
2022/07/08 03:27:14;;;;;;;;;;;25.90;39.20;;;;;;1545201;75;1122;-64
2022/07/08 03:29:16;;;;;;;;;;;25.90;39.30;;;;;;1533724;75;755;-64
2022/07/08 03:31:18;;;;;;;;;;;25.90;39.30;;;;;;1537949;75;716;-65
2022/07/08 03:33:20;;;;;;;;;;;25.90;39.30;;;;;;1551750;75;795;-65
2022/07/08 03:35:22;;;;;;;;;;;25.90;39.20;;;;;;1541937;75;833;-66
2022/07/08 03:37:23;;;;;;;;;;;25.90;39.40;;;;;;1543087;75;1957;-66
2022/07/08 03:39:25;;;;;;;;;;;25.90;39.40;;;;;;1556632;75;735;-66
2022/07/08 03:41:27;;;;;;;;;;;25.90;39.40;;;;;;1559341;75;754;-65
2022/07/08 03:43:29;;;;;;;;;;;25.90;39.40;;;;;;1548381;75;758;-65
2022/07/08 03:45:31;;;;;;;;;;;25.90;39.40;;;;;;1552545;75;720;-65
2022/07/08 03:47:34;;;;;;;;;;;25.90;39.40;;;;;;1560063;74;1122;-65
2022/07/08 03:49:36;;;;;;;;;;;25.90;39.40;;;;;;1532075;75;766;-66
2022/07/08 03:51:38;;;;;;;;;;;25.90;39.50;;;;;;1551001;75;824;-65
2022/07/08 03:53:40;;;;;;;;;;;25.90;39.50;;;;;;1535860;75;655;-65
2022/07/08 03:55:42;;;;;;;;;;;25.90;39.60;;;;;;1533218;75;804;-63
2022/07/08 03:57:44;;;;;;;;;;;25.90;39.60;;;;;;1554053;75;1947;-64
2022/07/08 03:59:45;;;;;;;;;;;25.90;39.60;;;;;;1531628;75;794;-64
2022/07/08 04:01:47;;;;;;;;;;;25.90;39.70;;;;;;1529470;75;666;-63
2022/07/08 04:03:49;;;;;;;;;;;25.90;39.70;;;;;;1568490;75;807;-65
2022/07/08 04:05:51;;;;;;;;;;;25.90;39.70;;;;;;1549846;75;1170;-65
2022/07/08 04:07:53;;;;;;;;;;;25.90;39.70;;;;;;1550179;75;784;-65
2022/07/08 04:09:55;;;;;;;;;;;25.90;39.70;;;;;;1540413;75;1524;-65
2022/07/08 04:11:57;;;;;;;;;;;25.90;39.80;;;;;;1533938;75;794;-65
2022/07/08 04:13:58;;;;;;;;;;;25.90;39.70;;;;;;1530892;75;737;-65
2022/07/08 04:16:00;;;;;;;;;;;25.90;39.70;;;;;;1554266;75;1166;-66
2022/07/08 04:18:02;;;;;;;;;;;25.90;39.80;;;;;;1547233;75;1943;-66
2022/07/08 04:20:05;;;;;;;;;;;25.90;39.80;;;;;;1544415;75;784;-66
2022/07/08 04:22:06;;;;;;;;;;;25.90;39.70;;;;;;1540965;75;748;-66
2022/07/08 04:24:08;;;;;;;;;;;25.90;39.80;;;;;;1549343;75;744;-66
2022/07/08 04:26:10;;;;;;;;;;;25.90;39.80;;;;;;1540281;75;1148;-65
2022/07/08 04:28:12;;;;;;;;;;;25.90;39.80;;;;;;1555976;75;804;-65
2022/07/08 04:30:14;;;;;;;;;;;25.90;39.80;;;;;;1547463;75;759;-65
2022/07/08 04:32:16;;;;;;;;;;;25.90;39.80;;;;;;1553198;75;749;-65
2022/07/08 04:34:18;;;;;;;;;;;25.90;39.80;;;;;;1547760;75;637;-65
2022/07/08 04:36:21;;;;;;;;;;;25.90;39.80;;;;;;1546700;75;1097;-65
2022/07/08 04:38:22;;;;;;;;;;;25.80;40.00;;;;;;1553127;75;1923;-64
2022/07/08 04:40:24;;;;;;;;;;;25.90;40.00;;;;;;1549225;75;773;-66
2022/07/08 04:42:26;;;;;;;;;;;25.90;40.00;;;;;;1546734;75;776;-64
2022/07/08 04:44:28;;;;;;;;;;;25.90;40.00;;;;;;1544584;75;700;-65
2022/07/08 04:46:30;;;;;;;;;;;25.90;40.00;;;;;;1541471;75;1148;-65
2022/07/08 04:48:32;;;;;;;;;;;25.90;40.00;;;;;;1563630;75;735;-65
2022/07/08 04:50:34;;;;;;;;;;;25.90;40.00;;;;;;1540673;75;722;-65
2022/07/08 04:52:36;;;;;;;;;;;25.90;40.00;;;;;;1562834;75;562;-65
2022/07/08 04:54:38;;;;;;;;;;;25.80;40.10;;;;;;1544677;75;796;-65
2022/07/08 04:56:39;;;;;;;;;;;25.90;40.00;;;;;;1549060;75;1139;-65
2022/07/08 04:58:41;;;;;;;;;;;25.90;40.10;;;;;;1552080;75;1937;-65
2022/07/08 05:00:43;;;;;;;;;;;25.90;40.10;;;;;;1539509;75;697;-65
2022/07/08 05:02:45;;;;;;;;;;;25.90;40.10;;;;;;1541760;75;792;-65
2022/07/08 05:04:47;;;;;;;;;;;25.90;40.10;;;;;;1551811;75;718;-65
2022/07/08 05:06:49;;;;;;;;;;;25.90;40.10;;;;;;1538136;75;1528;-65
2022/07/08 05:08:51;;;;;;;;;;;26.00;40.70;;;;;;1534400;75;731;-64
2022/07/08 05:10:53;;;;;;;;;;;26.00;40.70;;;;;;1546700;75;868;-69
2022/07/08 05:12:55;;;;;;;;;;;26.00;40.80;;;;;;1551810;75;751;-69
2022/07/08 05:14:57;;;;;;;;;;;26.00;40.60;;;;;;1539890;75;803;-69
2022/07/08 05:16:59;;;;;;;;;;;26.00;40.50;;;;;;1541110;75;1134;-69
2022/07/08 05:19:00;;;;;;;;;;;26.00;40.40;;;;;;1537277;75;1933;-70
2022/07/08 05:21:02;;;;;;;;;;;26.10;40.20;;;;;;1550639;75;800;-72
2022/07/08 05:23:04;;;;;;;;;;;26.10;40.10;;;;;;1554509;75;773;-71
2022/07/08 05:25:06;;;;;;;;;;;26.10;40.00;;;;;;1547997;75;722;-72
2022/07/08 05:27:08;;;;;;;;;;;26.10;39.80;;;;;;1546700;75;1126;-71
2022/07/08 05:29:10;;;;;;;;;;;26.00;39.70;;;;;;1545002;75;730;-70
2022/07/08 05:31:12;;;;;;;;;;;26.20;39.50;;;;;;1552032;75;715;-68
2022/07/08 05:33:14;;;;;;;;;;;26.10;39.40;;;;;;1562545;75;809;-67
2022/07/08 05:35:16;;;;;;;;;;;26.20;39.30;;;;;;1542869;75;825;-72
2022/07/08 05:37:17;;;;;;;;;;;26.30;39.00;;;;;;1546131;75;1946;-71
2022/07/08 05:39:19;;;;;;;;;;;26.30;38.90;;;;;;1558861;75;759;-71
2022/07/08 05:41:21;;;;;;;;;;;26.30;38.80;;;;;;1533843;75;745;-71
2022/07/08 05:43:23;;;;;;;;;;;26.30;38.50;;;;;;1553629;75;788;-70
2022/07/08 05:45:25;;;;;;;;;;;26.30;38.40;;;;;;1555155;75;806;-71
2022/07/08 05:47:27;;;;;;;;;;;26.30;38.40;;;;;;1544503;74;1118;-70
2022/07/08 05:49:29;;;;;;;;;;;26.40;38.20;;;;;;1554938;75;728;-72
2022/07/08 05:51:30;;;;;;;;;;;26.40;37.80;;;;;;1548304;75;823;-72
2022/07/08 05:53:32;;;;;;;;;;;26.40;37.60;;;;;;1552835;75;816;-72
2022/07/08 05:55:34;;;;;;;;;;;26.40;37.30;;;;;;1549817;75;744;-72
2022/07/08 05:57:36;;;;;;;;;;;26.50;36.80;;;;;;1555974;75;1959;-72
2022/07/08 05:59:38;;;;;;;;;;;26.40;36.60;;;;;;1545265;75;779;-72
2022/07/08 06:01:40;;;;;;;;;;;26.40;36.50;;;;;;1533861;75;723;-72
2022/07/08 06:03:42;;;;;;;;;;;26.40;36.50;;;;;;1532659;75;1673;-72
2022/07/08 06:05:44;;;;;;;;;;;26.40;36.00;;;;;;1534031;75;754;-72
2022/07/08 06:07:46;;;;;;;;;;;26.30;36.00;;;;;;1541082;75;1161;-72
2022/07/08 06:09:48;;;;;;;;;;;26.40;36.00;;;;;;1556310;75;599;-72
2022/07/08 06:11:49;;;;;;;;;;;26.40;35.90;;;;;;1555179;75;811;-72
2022/07/08 06:13:53;;;;;;;;;;;26.40;35.70;;;;;;1544912;75;770;-71
2022/07/08 06:15:55;;;;;;;;;;;26.30;35.70;;;;;;1536252;74;1153;-70
2022/07/08 06:17:57;;;;;;;;;;;26.40;35.70;;;;;;1538364;75;1934;-70
2022/07/08 06:19:59;;;;;;;;;;;26.30;35.70;;;;;;1557424;75;723;-70
2022/07/08 06:22:01;;;;;;;;;;;26.40;35.80;;;;;;1541636;75;803;-70
2022/07/08 06:24:03;;;;;;;;;;;26.40;35.50;;;;;;1550585;75;746;-71
2022/07/08 06:26:05;;;;;;;;;;;26.40;34.70;;;;;;1543614;74;1158;-69
2022/07/08 06:28:07;;;;;;;;;;;26.40;34.70;;;;;;1551557;75;827;-71
2022/07/08 06:30:09;;;;;;;;;;;26.40;34.90;;;;;;1546968;75;807;-69
2022/07/08 06:32:11;;;;;;;;;;;26.40;35.00;;;;;;1543133;75;822;-69
2022/07/08 06:34:13;;;;;;;;;;;26.30;35.00;;;;;;1542914;75;853;-70
2022/07/08 06:36:15;;;;;;;;;;;26.40;35.00;;;;;;1544245;75;1128;-70
2022/07/08 06:38:17;;;;;;;;;;;26.40;35.00;;;;;;1555068;75;1955;-69
2022/07/08 06:40:21;;;;;;;;;;;26.40;35.00;;;;;;1554182;75;810;-69
2022/07/08 06:42:22;;;;;;;;;;;26.40;35.10;;;;;;1533101;75;1434;-70
2022/07/08 06:44:24;;;;;;;;;;;26.50;35.10;;;;;;1548216;75;800;-70
2022/07/08 06:46:26;;;;;;;;;;;26.50;35.10;;;;;;1546331;75;1168;-69
2022/07/08 06:48:28;;;;;;;;;;;26.40;35.00;;;;;;1548270;75;825;-70
2022/07/08 06:50:30;;;;;;;;;;;26.40;35.00;;;;;;1538381;75;900;-70
2022/07/08 06:52:32;;;;;;;;;;;26.40;34.80;;;;;;1537367;75;921;-69
2022/07/08 06:54:36;;;;;;;;;;;26.30;34.70;;;;;;1545127;75;689;-70
2022/07/08 06:56:38;;;;;;;;;;;26.30;34.60;;;;;;1564339;71;2056;-65
2022/07/08 06:58:40;;;;;;;;;;;26.30;34.50;;;;;;1575499;74;1941;-65
2022/07/08 07:00:42;;;;;;;;;;;26.30;34.60;;;;;;1572617;75;791;-62
2022/07/08 07:02:44;;;;;;;;;;;26.30;34.60;;;;;;1582027;74;701;-65
2022/07/08 07:04:46;;;;;;;;;;;26.20;34.60;;;;;;1574445;74;745;-66
2022/07/08 07:06:48;;;;;;;;;;;26.20;34.50;;;;;;1582722;74;1187;-65
2022/07/08 07:08:49;;;;;;;;;;;26.20;34.60;;;;;;1608225;73;731;-62
2022/07/08 07:10:51;;;;;;;;;;;26.20;34.70;;;;;;1610774;73;789;-65
2022/07/08 07:12:53;;;;;;;;;;;26.20;34.60;;;;;;1614721;73;821;-65
2022/07/08 07:14:55;;;;;;;;;;;26.20;34.50;;;;;;1613268;73;723;-65
2022/07/08 07:16:57;;;;;;;;;;;26.30;34.50;;;;;;1598331;73;1152;-64
2022/07/08 07:18:59;;;;;;;;;;;26.30;34.40;;;;;;1597246;73;1937;-64
2022/07/08 07:21:00;;;;;;;;;;;26.30;33.60;;;;;;1602165;73;715;-65
2022/07/08 07:23:02;;;;;;;;;;;26.30;34.10;;;;;;1613244;73;693;-65
2022/07/08 07:25:04;;;;;;;;;;;26.30;34.20;;;;;;1610999;72;700;-65
2022/07/08 07:27:06;;;;;;;;;;;26.30;34.20;;;;;;1603694;72;1145;-64
2022/07/08 07:29:09;;;;;;;;;;;26.30;34.00;;;;;;1609824;72;693;-65
2022/07/08 07:31:10;;;;;;;;;;;26.30;34.00;;;;;;1603824;73;632;-65
2022/07/08 07:33:12;;;;;;;;;;;26.30;34.00;;;;;;1609081;73;721;-66
2022/07/08 07:35:14;;;;;;;;;;;26.20;34.10;;;;;;1605532;73;659;-64
2022/07/08 07:37:16;;;;;;;;;;;26.20;34.00;;;;;;1609002;73;1092;-64
2022/07/08 07:39:18;;;;;;;;;;;26.20;34.10;;;;;;1606628;72;1926;-64
2022/07/08 07:41:20;;;;;;;;;;;26.20;34.10;;;;;;1619802;72;751;-62
2022/07/08 07:43:22;;;;;;;;;;;26.20;34.10;;;;;;1601360;73;739;-62
2022/07/08 07:45:24;;;;;;;;;;;26.10;34.10;;;;;;1607168;73;701;-65
2022/07/08 07:47:26;;;;;;;;;;;26.10;34.10;;;;;;1592965;73;1449;-66
2022/07/08 07:49:27;;;;;;;;;;;26.10;34.00;;;;;;1611177;73;586;-66
2022/07/08 07:51:29;;;;;;;;;;;26.00;34.10;;;;;;1612136;73;739;-66
2022/07/08 07:53:31;;;;;;;;;;;26.00;33.90;;;;;;1618679;73;724;-65
2022/07/08 07:55:33;;;;;;;;;;;26.00;33.90;;;;;;1595880;73;1534;-64
2022/07/08 07:57:36;;;;;;;;;;;26.00;34.00;;;;;;1610853;73;1168;-65
2022/07/08 07:59:39;;;;;;;;;;;26.00;34.00;;;;;;1621426;73;1901;-65
2022/07/08 08:01:41;;;;;;;;;;;26.00;34.10;;;;;;1613651;73;815;-63
2022/07/08 08:03:43;;;;;;;;;;;25.90;33.50;;;;;;1607398;73;692;-64
2022/07/08 08:05:45;;;;;;;;;;;26.00;34.00;;;;;;1607261;73;669;-64
2022/07/08 08:07:47;;;;;;;;;;;26.00;34.00;;;;;;1613328;72;1192;-66
2022/07/08 08:09:49;;;;;;;;;;;25.90;33.50;;;;;;1611973;72;778;-64
2022/07/08 08:11:51;;;;;;;;;;;25.90;33.40;;;;;;1605428;72;731;-65
2022/07/08 08:13:52;;;;;;;;;;;26.00;34.10;;;;;;1603580;73;1071;-67
2022/07/08 08:15:55;;;;;;;;;;;26.00;34.20;;;;;;1606316;73;707;-63
2022/07/08 08:17:57;;;;;;;;;;;26.00;34.10;;;;;;1608134;73;1069;-65
2022/07/08 08:19:59;;;;;;;;;;;26.00;33.90;;;;;;1611087;73;1925;-64
2022/07/08 08:22:01;;;;;;;;;;;26.00;33.90;;;;;;1617431;73;806;-65
2022/07/08 08:24:03;;;;;;;;;;;26.00;33.70;;;;;;1602465;73;670;-64
2022/07/08 08:26:05;;;;;;;;;;;26.00;33.80;;;;;;1609959;73;801;-65
2022/07/08 08:28:07;;;;;;;;;;;26.00;33.80;;;;;;1612713;72;1109;-64
2022/07/08 08:30:09;;;;;;;;;;;25.90;33.30;;;;;;1607870;73;687;-65
2022/07/08 08:32:11;;;;;;;;;;;25.90;33.30;;;;;;1611550;73;987;-65
2022/07/08 08:34:13;;;;;;;;;;;25.90;33.10;;;;;;1610255;73;659;-64
2022/07/08 08:36:15;;;;;;;;;;;25.80;33.10;;;;;;1607742;73;568;-64
2022/07/08 08:38:17;;;;;;;;;;;25.80;33.10;;;;;;1613333;72;1094;-64
2022/07/08 08:40:19;;;;;;;;;;;25.80;33.10;;;;;;1613524;72;1922;-64
2022/07/08 08:42:21;;;;;;;;;;;25.80;33.10;;;;;;1611582;73;787;-65
2022/07/08 08:44:23;;;;;;;;;;;25.80;33.10;;;;;;1603326;73;798;-64
2022/07/08 08:46:25;;;;;;;;;;;25.70;33.10;;;;;;1613636;72;1142;-63
2022/07/08 08:48:27;;;;;;;;;;;25.70;33.20;;;;;;1601305;73;775;-64
2022/07/08 08:52:50;;;;;;;;;;;25.70;33.20;;;;;;1592089;73;1671;-64
2022/07/08 08:54:52;;;;;;;;;;;25.70;33.10;;;;;;1612081;73;791;-64
2022/07/08 08:56:54;;;;;;;;;;;25.70;33.10;;;;;;1611059;73;1132;-65
2022/07/08 08:58:55;;;;;;;;;;;25.70;33.20;;;;;;1604461;73;1933;-65
2022/07/08 09:00:57;;;;;;;;;;;25.70;33.20;;;;;;1610373;73;705;-64
2022/07/08 09:02:59;;;;;;;;;;;25.60;33.20;;;;;;1613123;73;711;-65
2022/07/08 09:05:01;;;;;;;;;;;25.70;33.30;;;;;;1606922;73;788;-65
2022/07/08 09:07:03;;;;;;;;;;;25.60;33.20;;;;;;1613629;72;1190;-66
2022/07/08 09:09:05;;;;;;;;;;;25.60;33.20;;;;;;1617091;72;790;-64
2022/07/08 09:11:07;;;;;;;;;;;25.60;33.00;;;;;;1592788;73;777;-64
2022/07/08 09:13:11;;;;;;;;;;;25.50;32.90;;;;;;1600854;73;709;-64
2022/07/08 09:15:13;;;;;;;;;;;25.50;33.00;;;;;;1603416;73;746;-63
2022/07/08 09:17:17;;;;;;;;;;;25.50;33.10;;;;;;1604178;72;1122;-64
2022/07/08 09:19:18;;;;;;;;;;;25.50;33.10;;;;;;1600321;73;1921;-66
2022/07/08 09:21:22;;;;;;;;;;;25.50;33.10;;;;;;1612489;73;665;-64
2022/07/08 09:23:29;;;;;;;;;;;25.50;33.20;;;;;;1620505;72;1785;-65
2022/07/08 09:25:32;;;;;;;;;;;25.50;33.20;;;;;;1600905;73;813;-64
2022/07/08 09:27:34;;;;;;;;;;;25.40;33.10;;;;;;1608099;73;1544;-65
2022/07/08 09:29:36;;;;;;;;;;;25.50;33.10;;;;;;1598275;73;682;-64
2022/07/08 09:31:38;;;;;;;;;;;25.50;33.10;;;;;;1597567;73;598;-64
2022/07/08 09:33:41;;;;;;;;;;;25.50;33.10;;;;;;1604777;73;632;-64
2022/07/08 09:35:44;;;;;;;;;;;25.30;32.70;;;;;;1602986;73;719;-64
2022/07/08 09:37:48;;;;;;;;;;;25.40;33.00;;;;;;1612821;72;1107;-65
2022/07/08 09:39:49;;;;;;;;;;;25.40;33.10;;;;;;1609991;73;1937;-65
2022/07/08 09:41:51;;;;;;;;;;;25.40;33.10;;;;;;1609357;73;761;-65
2022/07/08 09:43:55;;;;;;;;;;;25.50;33.10;;;;;;1615802;73;716;-65
2022/07/08 09:46:04;;;;;;;;;;;25.40;33.20;;;;;;1613742;73;1847;-65
2022/07/08 09:48:07;;;;;;;;;;;25.50;33.20;;;;;;1606477;73;1357;-67
2022/07/08 09:50:09;;;;;;;;;;;25.40;33.30;;;;;;1611236;73;764;-66
2022/07/08 09:52:11;;;;;;;;;;;25.40;33.30;;;;;;1599131;73;724;-69
2022/07/08 09:54:13;;;;;;;;;;;25.40;33.30;;;;;;1615686;72;767;-66
2022/07/08 09:56:15;;;;;;;;;;;25.40;33.30;;;;;;1592663;74;704;-66
2022/07/08 09:58:17;;;;;;;;;;;25.40;33.30;;;;;;1612593;73;1077;-66
2022/07/08 10:00:19;;;;;;;;;;;25.40;33.20;;;;;;1611619;73;1926;-67
2022/07/08 10:02:20;;;;;;;;;;;25.40;33.40;;;;;;1613936;73;865;-69
2022/07/08 10:04:24;;;;;;;;;;;25.50;33.40;;;;;;1613228;73;726;-66
2022/07/08 10:06:26;;;;;;;;;;;25.50;33.50;;;;;;1599076;73;1084;-65
2022/07/08 10:08:28;;;;;;;;;;;25.50;33.20;;;;;;1597681;73;787;-67
2022/07/08 10:10:29;;;;;;;;;;;25.50;33.20;;;;;;1598270;73;841;-66
2022/07/08 10:12:31;;;;;;;;;;;25.50;33.30;;;;;;1607966;73;698;-65
2022/07/08 10:14:33;;;;;;;;;;;25.50;33.40;;;;;;1609660;73;748;-66
2022/07/08 10:16:35;;;;;;;;;;;25.50;33.50;;;;;;1600721;73;1193;-66
2022/07/08 10:18:38;;;;;;;;;;;25.50;33.50;;;;;;1598682;73;796;-66
2022/07/08 10:20:42;;;;;;;;;;;25.50;33.60;;;;;;1605772;73;1936;-66
2022/07/08 10:22:45;;;;;;;;;;;25.40;33.60;;;;;;1600207;72;658;-67
2022/07/08 10:24:46;;;;;;;;;;;25.40;33.70;;;;;;1611587;73;711;-66
2022/07/08 10:26:48;;;;;;;;;;;25.50;33.80;;;;;;1603188;72;1134;-65
2022/07/08 10:29:10;;;;;;;;;;;25.50;33.80;;;;;;1604689;73;673;-65
2022/07/08 10:31:23;;;;;;;;;;;25.40;33.80;;;;;;1603125;73;805;-64
2022/07/08 10:33:25;;;;;;;;;;;25.50;33.00;;;;;;1599272;73;1521;-65
2022/07/08 10:35:27;;;;;;;;;;;25.40;33.60;;;;;;1609255;73;755;-65
2022/07/08 10:37:31;;;;;;;;;;;25.40;33.80;;;;;;1606846;72;1135;-64
2022/07/08 10:39:40;;;;;;;;;;;25.30;33.70;;;;;;1602217;73;1920;-65
2022/07/08 10:41:43;;;;;;;;;;;25.40;33.80;;;;;;1608058;73;717;-62
2022/07/08 10:43:52;;;;;;;;;;;25.40;33.70;;;;;;1601899;73;1494;-66
2022/07/08 10:46:01;;;;;;;;;;;25.40;33.70;;;;;;1602688;73;671;-65
2022/07/08 10:48:06;;;;;;;;;;;25.40;33.70;;;;;;1612915;72;1121;-65
2022/07/08 10:50:08;;;;;;;;;;;25.40;33.70;;;;;;1600890;72;642;-65
2022/07/08 10:52:10;;;;;;;;;;;25.30;33.70;;;;;;1610332;72;714;-66
2022/07/08 10:54:14;;;;;;;;;;;25.40;33.70;;;;;;1609106;72;646;-66
2022/07/08 10:56:34;;;;;;;;;;;25.40;33.60;;;;;;1611216;72;1126;-65
2022/07/08 10:58:37;;;;;;;;;;;25.40;33.50;;;;;;1607516;73;651;-66
2022/07/08 11:00:39;;;;;;;;;;;25.40;33.40;;;;;;1587836;73;1935;-67
2022/07/08 11:02:42;;;;;;;;;;;25.40;33.30;;;;;;1604818;73;716;-66
2022/07/08 11:04:44;;;;;;;;;;;25.40;33.20;;;;;;1608337;72;562;-66
2022/07/08 11:06:46;;;;;;;;;;;25.40;33.20;;;;;;1606987;73;1155;-66
2022/07/08 11:08:52;;;;;;;;;;;25.40;33.10;;;;;;1600354;72;716;-67
2022/07/08 11:10:59;;;;;;;;;;;25.30;33.10;;;;;;1595283;73;977;-67
2022/07/08 11:12:58;;;;;;;;;;;25.40;33.10;;;;;;1609082;73;1194;-66
2022/07/08 11:15:01;;;;;;;;;;;25.30;33.30;;;;;;1607546;73;713;-67
2022/07/08 11:17:03;;;;;;;;;;;25.30;33.20;;;;;;1609904;73;1198;-65
2022/07/08 11:19:09;;;;;;;;;;;25.30;33.20;;;;;;1601736;72;763;-65
2022/07/08 11:21:10;;;;;;;;;;;25.30;33.10;;;;;;1603362;72;1929;-66
2022/07/08 11:23:12;;;;;;;;;;;25.30;33.10;;;;;;1602234;73;667;-66
2022/07/08 11:25:15;;;;;;;;;;;25.20;32.80;;;;;;1611953;73;812;-67
2022/07/08 11:27:16;;;;;;;;;;;25.20;32.90;;;;;;1606528;72;1100;-67
2022/07/08 11:29:20;;;;;;;;;;;25.20;33.00;;;;;;1601671;73;720;-63
2022/07/08 11:31:24;;;;;;;;;;;25.20;33.00;;;;;;1611570;72;1980;-65
2022/07/08 11:33:39;;;;;;;;;;;25.30;32.90;;;;;;1602332;73;658;-66
2022/07/08 11:35:41;;;;;;;;;;;25.30;32.80;;;;;;1600963;73;903;-66
2022/07/08 11:37:44;;;;;;;;;;;25.20;32.80;;;;;;1604148;73;1150;-68
2022/07/08 11:39:46;;;;;;;;;;;25.30;32.80;;;;;;1608778;73;1950;-65
2022/07/08 11:41:48;;;;;;;;;;;25.30;32.80;;;;;;1596688;72;788;-66
2022/07/08 11:43:50;;;;;;;;;;;25.30;32.60;;;;;;1607471;73;805;-67
2022/07/08 11:45:52;;;;;;;;;;;25.30;32.60;;;;;;1606405;73;651;-65
2022/07/08 11:47:54;;;;;;;;;;;25.20;32.40;;;;;;1613057;72;1119;-65
2022/07/08 11:49:56;;;;;;;;;;;25.30;32.50;;;;;;1610502;72;701;-65
2022/07/08 11:51:58;;;;;;;;;;;25.30;32.60;;;;;;1608894;73;770;-65
2022/07/08 11:54:00;;;;;;;;;;;25.30;32.60;;;;;;1608065;73;768;-66
2022/07/08 11:56:02;;;;;;;;;;;25.30;32.60;;;;;;1601010;73;714;-66
2022/07/08 11:58:03;;;;;;;;;;;25.30;32.50;;;;;;1602915;72;1191;-66
2022/07/08 12:00:06;;;;;;;;;;;25.40;32.50;;;;;;1597622;73;1936;-66
2022/07/08 12:02:08;;;;;;;;;;;25.20;32.50;;;;;;1607584;72;704;-66
2022/07/08 12:04:10;;;;;;;;;;;25.30;32.60;;;;;;1611900;73;771;-66
2022/07/08 12:06:12;;;;;;;;;;;25.20;32.60;;;;;;1600291;73;683;-66
2022/07/08 12:08:14;;;;;;;;;;;25.20;32.70;;;;;;1606252;73;1108;-66
2022/07/08 12:10:17;;;;;;;;;;;25.20;32.60;;;;;;1598190;73;782;-65
2022/07/08 12:12:20;;;;;;;;;;;25.20;32.50;;;;;;1599123;73;1761;-65
2022/07/08 12:14:22;;;;;;;;;;;25.10;32.50;;;;;;1601480;73;707;-65